Pleasant Valley, Washington
Current Conditions -  °F | °C
As of 3:53 AM on Friday 21 Nov 2014 (Local Time) from KBLI Reporting Station
Overcast Overcast  
Wind Chill: 54°   Ceiling: 3000
Heat Index: 54°   Visibility: 10mi
Dew Point: 43°   Wind: 13mph
Humidity: 66%   Direction: 150°SSE
Pressure: 29.78"   Gusts: NA
Location:  48.8653°N, 122.636°W
Report Text: KBLI 211153Z AUTO 15011KT 10SM OVC030 12/06 A2978 RMK AO2 SLP091 60000 70009 T01220061 10122 20106 58019
Loading
Personal Weather Stations






























Interactive Weather Map New forecast layout! Learn more

10-Day Weather Forecast

Advertisements
Track Severe Weather on mobile